createdAt,value
2019-05-01T00:01:51.685Z,68.65
2019-05-01T00:05:00.866Z,68.97
2019-05-01T00:07:47.090Z,68.94
2019-05-01T00:10:34.115Z,69.17
2019-05-01T00:13:20.432Z,69.26
2019-05-01T00:16:06.470Z,69.29
2019-05-01T00:18:52.458Z,69.84
2019-05-01T00:21:38.912Z,69.70
2019-05-01T00:24:25.070Z,69.75
2019-05-01T00:27:11.113Z,70.23
2019-05-01T00:29:56.968Z,70.23
2019-05-01T00:32:45.189Z,70.34
2019-05-01T00:35:31.477Z,70.35
2019-05-01T00:38:17.677Z,70.38
2019-05-01T00:41:03.725Z,70.64
2019-05-01T00:43:49.704Z,71.09
2019-05-01T00:46:35.757Z,71.24
2019-05-01T00:49:22.065Z,71.21
2019-05-01T00:52:08.396Z,71.33
2019-05-01T00:55:13.529Z,71.34
2019-05-01T00:58:07.750Z,71.93
2019-05-01T01:01:27.775Z,72.10
2019-05-01T01:04:15.862Z,72.31
2019-05-01T01:07:02.470Z,72.68
2019-05-01T01:09:48.377Z,73.00
2019-05-01T01:12:34.294Z,73.07
2019-05-01T01:15:20.596Z,73.41
2019-05-01T01:18:06.791Z,73.71
2019-05-01T01:20:52.865Z,73.74
2019-05-01T01:23:39.117Z,73.62
2019-05-01T01:26:25.813Z,73.88
2019-05-01T01:29:11.886Z,73.93
2019-05-01T01:32:01.071Z,73.88
2019-05-01T01:34:47.067Z,73.81
2019-05-01T01:37:33.240Z,74.16
2019-05-01T01:40:19.547Z,74.50
2019-05-01T01:43:24.797Z,74.69
2019-05-01T01:46:15.144Z,74.91
2019-05-01T01:49:01.407Z,75.28
2019-05-01T01:51:47.726Z,75.10
2019-05-01T01:54:33.691Z,75.15
2019-05-01T01:57:19.723Z,75.25
2019-05-01T02:00:08.251Z,75.47
2019-05-01T02:02:57.748Z,75.15
2019-05-01T02:05:44.703Z,75.60
2019-05-01T02:08:30.810Z,75.67
2019-05-01T02:11:16.930Z,75.71
2019-05-01T02:14:03.162Z,75.68
2019-05-01T02:16:49.281Z,76.28
2019-05-01T02:19:35.481Z,76.64
2019-05-01T02:22:21.458Z,77.17
2019-05-01T02:25:09.045Z,77.70
2019-05-01T02:28:16.789Z,77.58
2019-05-01T02:31:29.437Z,77.32
2019-05-01T02:34:15.674Z,77.43
2019-05-01T02:37:02.004Z,77.84
2019-05-01T02:39:48.193Z,77.74
2019-05-01T02:42:34.258Z,77.63
2019-05-01T02:45:20.422Z,77.71
2019-05-01T02:48:09.213Z,77.67
2019-05-01T02:50:55.532Z,77.71
2019-05-01T02:53:41.505Z,77.55
2019-05-01T02:56:36.136Z,77.18
2019-05-01T02:59:22.090Z,76.98
2019-05-01T03:02:08.522Z,76.67
2019-05-01T03:04:54.937Z,76.76
2019-05-01T03:07:40.958Z,77.10
2019-05-01T03:10:26.970Z,77.08
2019-05-01T03:13:12.910Z,76.75
2019-05-01T03:15:59.179Z,76.58
2019-05-01T03:18:49.198Z,76.87
2019-05-01T03:21:40.575Z,77.26
2019-05-01T03:24:27.658Z,77.46
2019-05-01T03:27:13.780Z,77.01
2019-05-01T03:29:59.780Z,77.41
2019-05-01T03:32:46.062Z,77.63
2019-05-01T03:35:32.130Z,77.74
2019-05-01T03:38:18.638Z,77.76
2019-05-01T03:41:04.633Z,77.84
2019-05-01T03:43:50.553Z,77.89
2019-05-01T03:46:36.587Z,78.01
2019-05-01T03:49:22.374Z,77.94
2019-05-01T03:52:08.445Z,78.13
2019-05-01T03:54:54.491Z,78.33
2019-05-01T03:57:40.361Z,78.54
2019-05-01T04:00:39.219Z,78.77
2019-05-01T04:03:53.464Z,78.87
2019-05-01T04:06:39.458Z,78.95
2019-05-01T04:09:25.496Z,78.93
2019-05-01T04:12:11.594Z,79.03
2019-05-01T04:14:58.571Z,79.19
2019-05-01T04:17:50.024Z,78.94
2019-05-01T04:20:36.275Z,78.92
2019-05-01T04:23:22.480Z,78.77
2019-05-01T04:26:08.803Z,78.42
2019-05-01T04:29:01.430Z,77.79
2019-05-01T04:31:58.579Z,77.39
2019-05-01T04:34:56.473Z,77.29
2019-05-01T04:37:42.627Z,77.00
2019-05-01T04:40:29.000Z,77.14
2019-05-01T04:43:14.890Z,77.08
2019-05-01T04:46:00.940Z,77.96
2019-05-01T04:48:46.965Z,78.33
2019-05-01T04:51:32.911Z,78.77
2019-05-01T04:54:19.027Z,79.00
2019-05-01T04:57:05.920Z,79.15
2019-05-01T04:59:52.092Z,78.93
2019-05-01T05:02:49.944Z,79.29
2019-05-01T05:05:35.929Z,79.56
2019-05-01T05:08:22.031Z,79.36
2019-05-01T05:11:13.042Z,79.18
2019-05-01T05:14:13.545Z,79.14
2019-05-01T05:17:03.583Z,79.47
2019-05-01T05:19:52.551Z,79.66
2019-05-01T05:22:38.726Z,80.04
2019-05-01T05:25:24.653Z,80.22
2019-05-01T05:28:11.464Z,80.97
2019-05-01T05:31:00.846Z,81.03
2019-05-01T05:33:47.083Z,80.79
2019-05-01T05:36:33.121Z,80.46
2019-05-01T05:39:42.135Z,80.18
2019-05-01T05:42:28.328Z,79.94
2019-05-01T05:45:14.281Z,79.52
2019-05-01T05:48:00.212Z,79.01
2019-05-01T05:50:56.066Z,78.85
2019-05-01T05:53:44.097Z,78.75
2019-05-01T05:56:35.076Z,78.20
2019-05-01T05:59:23.984Z,78.22
2019-05-01T06:02:26.520Z,78.40
2019-05-01T06:05:32.070Z,78.19
2019-05-01T06:08:23.295Z,78.37
2019-05-01T06:11:29.744Z,78.60
2019-05-01T06:14:32.748Z,78.08
2019-05-01T06:17:32.389Z,78.25
2019-05-01T06:20:27.671Z,78.01
2019-05-01T06:23:29.947Z,78.05
2019-05-01T06:26:26.535Z,78.14
2019-05-01T06:29:12.757Z,78.18
2019-05-01T06:32:00.029Z,78.17
2019-05-01T06:34:46.158Z,78.12
2019-05-01T06:37:32.200Z,77.54
2019-05-01T06:40:22.443Z,77.64
2019-05-01T06:43:13.528Z,77.88
2019-05-01T06:46:17.394Z,77.59
2019-05-01T06:49:18.365Z,77.83
2019-05-01T06:52:04.760Z,77.76
2019-05-01T06:54:52.249Z,77.12
2019-05-01T06:57:43.973Z,77.02
2019-05-01T07:00:27.206Z,76.58
2019-05-01T07:03:13.878Z,76.37
2019-05-01T07:05:59.814Z,76.13
2019-05-01T07:08:45.735Z,75.69
2019-05-01T07:11:34.151Z,75.71
2019-05-01T07:14:20.422Z,75.35
2019-05-01T07:17:08.899Z,75.37
2019-05-01T07:20:16.716Z,75.26
2019-05-01T07:23:01.379Z,75.20
2019-05-01T07:25:47.602Z,75.25
2019-05-01T07:28:36.229Z,75.33
2019-05-01T07:31:25.954Z,75.34
2019-05-01T07:34:16.797Z,75.27
2019-05-01T07:36:58.809Z,75.02
2019-05-01T07:39:49.392Z,75.31
2019-05-01T07:42:34.792Z,75.45
2019-05-01T07:45:43.562Z,75.30
2019-05-01T07:48:27.471Z,75.22
2019-05-01T07:51:13.416Z,74.77
2019-05-01T07:54:04.081Z,74.75
2019-05-01T07:56:47.189Z,74.99
2019-05-01T07:59:33.092Z,74.77
2019-05-01T08:02:19.398Z,74.57
2019-05-01T08:05:10.087Z,74.56
2019-05-01T08:07:53.586Z,74.10
2019-05-01T08:10:39.880Z,73.91
2019-05-01T08:13:25.845Z,73.98
2019-05-01T08:16:12.013Z,73.41
2019-05-01T08:19:08.547Z,73.69
2019-05-01T08:22:16.831Z,74.21
2019-05-01T08:25:05.243Z,73.99
2019-05-01T08:28:00.296Z,73.48
2019-05-01T08:31:02.934Z,73.36
2019-05-01T08:33:59.851Z,73.44
2019-05-01T08:36:47.207Z,73.82
2019-05-01T08:39:34.885Z,73.08
2019-05-01T08:42:21.129Z,73.08
2019-05-01T08:45:30.648Z,72.83
2019-05-01T08:48:50.739Z,73.22
2019-05-01T08:51:36.956Z,73.56
2019-05-01T08:54:23.213Z,73.27
2019-05-01T08:57:09.413Z,73.15
2019-05-01T08:59:59.888Z,72.94
2019-05-01T09:02:46.756Z,72.54
2019-05-01T09:05:34.084Z,72.69
2019-05-01T09:08:20.050Z,72.70
2019-05-01T09:11:06.308Z,72.62
2019-05-01T09:13:54.584Z,72.57
2019-05-01T09:16:40.227Z,72.27
2019-05-01T09:19:26.480Z,72.07
2019-05-01T09:22:12.780Z,70.62
2019-05-01T09:25:00.320Z,70.02
2019-05-01T09:27:55.105Z,70.48
2019-05-01T09:30:47.080Z,70.06
2019-05-01T09:33:33.182Z,69.95
2019-05-01T09:36:19.208Z,69.68
2019-05-01T09:39:06.359Z,69.79
2019-05-01T09:41:52.240Z,70.12
2019-05-01T09:44:38.400Z,69.65
2019-05-01T09:47:25.124Z,69.75
2019-05-01T09:50:11.183Z,69.34
2019-05-01T09:53:05.709Z,69.13
2019-05-01T09:56:03.295Z,68.79
2019-05-01T09:58:49.578Z,68.44
2019-05-01T10:01:38.012Z,68.26
2019-05-01T10:04:25.434Z,68.53
2019-05-01T10:07:11.912Z,68.67
2019-05-01T10:10:01.026Z,68.17
2019-05-01T10:12:48.475Z,67.78
2019-05-01T10:15:34.660Z,67.14
2019-05-01T10:18:20.617Z,66.59
2019-05-01T10:21:07.003Z,65.06
2019-05-01T10:23:53.339Z,64.82
2019-05-01T10:26:41.666Z,65.05
2019-05-01T10:29:49.883Z,66.25
2019-05-01T10:32:42.263Z,66.54
2019-05-01T10:35:49.078Z,67.05
2019-05-01T10:38:35.066Z,67.01
2019-05-01T10:41:20.974Z,66.77
2019-05-01T10:44:07.209Z,66.46
2019-05-01T10:46:53.256Z,65.63
2019-05-01T10:49:39.363Z,63.90
2019-05-01T10:52:25.689Z,63.76
2019-05-01T10:55:11.739Z,64.85
2019-05-01T10:57:57.749Z,65.78
2019-05-01T11:00:45.484Z,64.07
2019-05-01T11:03:31.661Z,64.17
2019-05-01T11:06:17.820Z,62.64
2019-05-01T11:09:04.868Z,62.42
2019-05-01T11:11:51.129Z,62.86
2019-05-01T11:14:38.938Z,63.12
2019-05-01T11:17:25.281Z,62.98
2019-05-01T11:20:11.306Z,62.77
2019-05-01T11:22:57.616Z,63.12
2019-05-01T11:25:44.737Z,62.78
2019-05-01T11:28:31.212Z,62.97
2019-05-01T11:31:19.922Z,63.68
2019-05-01T11:34:25.117Z,63.56
2019-05-01T11:37:29.761Z,64.21
2019-05-01T11:40:33.444Z,63.14
2019-05-01T11:43:19.399Z,62.80
2019-05-01T11:46:05.399Z,63.19
2019-05-01T11:48:51.382Z,63.54
2019-05-01T11:51:37.458Z,62.58
2019-05-01T11:54:23.591Z,62.20
2019-05-01T11:57:09.937Z,62.33
2019-05-01T11:59:58.936Z,62.04
2019-05-01T12:02:45.201Z,61.70
2019-05-01T12:05:31.611Z,61.89
2019-05-01T12:08:17.800Z,61.27
2019-05-01T12:11:04.981Z,59.79
2019-05-01T12:13:51.256Z,60.38
2019-05-01T12:16:59.183Z,60.11
2019-05-01T12:19:45.227Z,60.57
2019-05-01T12:22:31.267Z,60.92
2019-05-01T12:25:18.283Z,60.74
2019-05-01T12:28:04.208Z,61.09
2019-05-01T12:30:50.254Z,61.47
2019-05-01T12:33:36.255Z,61.11
2019-05-01T12:36:35.144Z,61.18
2019-05-01T12:39:13.077Z,61.19
2019-05-01T12:42:00.815Z,61.17
2019-05-01T12:44:47.091Z,61.17
2019-05-01T12:47:53.293Z,60.55
2019-05-01T12:50:39.437Z,59.57
2019-05-01T12:53:43.092Z,59.86
2019-05-01T12:56:35.071Z,60.42
2019-05-01T12:59:21.741Z,59.21
2019-05-01T13:02:10.673Z,59.14
2019-05-01T13:04:59.263Z,60.17
2019-05-01T13:07:45.533Z,60.42
2019-05-01T13:10:31.454Z,60.28
2019-05-01T13:13:17.396Z,59.13
2019-05-01T13:16:06.862Z,58.81
2019-05-01T13:18:53.145Z,58.30
2019-05-01T13:21:39.345Z,58.69
2019-05-01T13:24:27.928Z,58.69
2019-05-01T13:27:19.681Z,58.18
2019-05-01T13:30:18.366Z,58.17
2019-05-01T13:33:04.723Z,57.89
2019-05-01T13:35:51.125Z,56.59
2019-05-01T13:38:37.043Z,55.47
2019-05-01T13:41:23.185Z,54.88
2019-05-01T13:44:09.082Z,55.25
2019-05-01T13:46:55.346Z,54.87
2019-05-01T13:49:41.380Z,55.04
2019-05-01T13:52:27.366Z,54.99
2019-05-01T13:55:16.460Z,53.60
2019-05-01T13:58:02.467Z,53.35
2019-05-01T14:00:48.456Z,53.38
2019-05-01T14:03:34.664Z,54.03
2019-05-01T14:06:20.828Z,52.88
2019-05-01T14:09:08.684Z,52.58
2019-05-01T14:11:54.855Z,51.70
2019-05-01T14:14:41.271Z,51.52
2019-05-01T14:17:27.560Z,50.31
2019-05-01T14:20:42.628Z,48.40
2019-05-01T14:23:35.487Z,48.36
2019-05-01T14:26:21.801Z,48.16
2019-05-01T14:29:07.799Z,48.04
2019-05-01T14:31:53.784Z,47.86
2019-05-01T14:34:39.967Z,47.07
2019-05-01T14:37:29.754Z,46.67
2019-05-01T14:40:14.297Z,46.18
2019-05-01T14:43:00.309Z,46.06
2019-05-01T14:45:46.655Z,46.12
2019-05-01T14:48:32.847Z,44.92
2019-05-01T14:51:21.663Z,44.00
2019-05-01T14:54:09.991Z,42.93
2019-05-01T14:56:55.900Z,42.89
2019-05-01T14:59:41.988Z,43.26
2019-05-01T15:02:28.254Z,42.50
2019-05-01T15:05:14.213Z,42.85
2019-05-01T15:08:03.343Z,42.41
2019-05-01T15:10:49.326Z,43.35
2019-05-01T15:13:57.181Z,43.73
2019-05-01T15:17:02.382Z,44.32
2019-05-01T15:19:53.681Z,44.66
2019-05-01T15:22:40.148Z,44.42
2019-05-01T15:25:26.422Z,44.66
2019-05-01T15:28:12.595Z,44.46
2019-05-01T15:30:58.656Z,44.98
2019-05-01T15:33:44.967Z,45.72
2019-05-01T15:36:31.175Z,45.64
2019-05-01T15:39:25.676Z,46.17
2019-05-01T15:42:29.361Z,46.37
2019-05-01T15:45:15.668Z,46.54
2019-05-01T15:48:01.976Z,46.72
2019-05-01T15:50:47.919Z,47.32
2019-05-01T15:53:34.115Z,47.43
2019-05-01T15:56:20.349Z,48.10
2019-05-01T15:59:06.738Z,48.15
2019-05-01T16:01:52.644Z,47.94
2019-05-01T16:04:38.775Z,47.82
2019-05-01T16:07:24.753Z,48.06
2019-05-01T16:10:12.965Z,48.38
2019-05-01T16:13:00.820Z,48.34
2019-05-01T16:15:46.834Z,48.36
2019-05-01T16:18:35.502Z,48.46
2019-05-01T16:21:21.537Z,48.53
2019-05-01T16:24:09.830Z,48.48
2019-05-01T16:26:56.201Z,48.88
2019-05-01T16:29:42.563Z,48.99
2019-05-01T16:32:28.804Z,48.55
2019-05-01T16:35:15.136Z,48.85
2019-05-01T16:38:02.755Z,48.31
2019-05-01T16:41:02.400Z,48.85
2019-05-01T16:43:48.717Z,49.02
2019-05-01T16:46:34.721Z,48.92
2019-05-01T16:49:20.713Z,48.89
2019-05-01T16:52:06.756Z,48.92
2019-05-01T16:54:59.155Z,48.83
2019-05-01T16:57:40.754Z,49.07
2019-05-01T17:00:27.775Z,49.49
2019-05-01T17:03:19.944Z,49.44
2019-05-01T17:06:45.246Z,49.49
2019-05-01T17:10:04.818Z,49.33
2019-05-01T17:12:53.803Z,49.34
2019-05-01T17:15:41.995Z,49.49
2019-05-01T17:18:29.319Z,49.80
2019-05-01T17:21:15.493Z,50.02
2019-05-01T17:24:01.547Z,50.12
2019-05-01T17:26:47.779Z,49.94
2019-05-01T17:29:36.042Z,50.45
2019-05-01T17:32:22.260Z,50.49
2019-05-01T17:35:08.305Z,50.35
2019-05-01T17:37:54.441Z,50.53
2019-05-01T17:40:47.448Z,50.58
2019-05-01T17:43:32.628Z,50.49
2019-05-01T17:46:18.924Z,50.12
2019-05-01T17:49:09.295Z,50.42
2019-05-01T17:51:52.705Z,51.03
2019-05-01T17:54:38.792Z,50.51
2019-05-01T17:57:24.761Z,50.98
2019-05-01T18:00:40.343Z,51.13
2019-05-01T18:03:45.628Z,51.23
2019-05-01T18:06:34.300Z,51.11
2019-05-01T18:09:21.771Z,51.61
2019-05-01T18:12:08.616Z,51.20
2019-05-01T18:14:55.335Z,51.23
2019-05-01T18:17:41.712Z,51.55
2019-05-01T18:20:29.988Z,51.37
2019-05-01T18:23:53.117Z,51.51
2019-05-01T18:27:14.746Z,51.61
2019-05-01T18:30:05.884Z,51.83
2019-05-01T18:32:52.801Z,52.10
2019-05-01T18:35:38.801Z,52.24
2019-05-01T18:38:37.114Z,52.51
2019-05-01T18:41:31.309Z,52.55
2019-05-01T18:44:17.752Z,52.68
2019-05-01T18:47:04.110Z,52.80
2019-05-01T18:49:50.073Z,52.54
2019-05-01T18:52:36.139Z,52.83
2019-05-01T18:55:25.861Z,52.89
2019-05-01T18:58:09.938Z,53.28
2019-05-01T19:00:56.047Z,53.30
2019-05-01T19:03:44.019Z,53.71
2019-05-01T19:06:40.552Z,53.86
2019-05-01T19:09:29.300Z,54.13
2019-05-01T19:12:08.273Z,54.28
2019-05-01T19:14:54.659Z,54.32
2019-05-01T19:17:44.684Z,54.50
2019-05-01T19:20:34.488Z,54.66
2019-05-01T19:23:22.095Z,54.61
2019-05-01T19:26:08.887Z,54.85
2019-05-01T19:29:00.010Z,54.93
2019-05-01T19:31:59.670Z,55.18
2019-05-01T19:34:49.413Z,55.15
2019-05-01T19:37:38.540Z,55.04
2019-05-01T19:40:30.521Z,55.30
2019-05-01T19:43:13.560Z,55.73
2019-05-01T19:46:13.947Z,55.97
2019-05-01T19:49:00.276Z,56.46
2019-05-01T19:51:46.465Z,56.58
2019-05-01T19:54:32.692Z,57.07
2019-05-01T19:57:19.036Z,57.19
2019-05-01T20:00:05.843Z,57.65
2019-05-01T20:02:54.194Z,58.09
2019-05-01T20:05:42.361Z,58.74
2019-05-01T20:08:28.621Z,59.04
2019-05-01T20:11:14.874Z,59.11
2019-05-01T20:14:01.118Z,59.48
2019-05-01T20:16:50.862Z,59.73
2019-05-01T20:19:36.122Z,60.01
2019-05-01T20:22:22.508Z,60.71
2019-05-01T20:25:09.008Z,60.98
2019-05-01T20:27:57.262Z,61.12
2019-05-01T20:30:43.828Z,61.35
2019-05-01T20:33:33.210Z,61.41
2019-05-01T20:36:18.161Z,61.55
2019-05-01T20:39:06.525Z,61.85
2019-05-01T20:41:52.715Z,61.97
2019-05-01T20:44:39.055Z,62.20
2019-05-01T20:47:34.837Z,62.29
2019-05-01T20:50:14.053Z,62.14
2019-05-01T20:53:00.165Z,61.75
2019-05-01T20:55:52.702Z,61.27
2019-05-01T20:58:39.259Z,60.52
2019-05-01T21:01:29.593Z,59.93
2019-05-01T21:04:47.115Z,59.40
2019-05-01T21:07:37.049Z,58.82
2019-05-01T21:10:29.806Z,57.83
2019-05-01T21:13:17.813Z,57.30
2019-05-01T21:16:03.896Z,57.02
2019-05-01T21:18:50.273Z,56.88
2019-05-01T21:21:36.693Z,56.65
2019-05-01T21:24:24.006Z,56.61
2019-05-01T21:27:10.058Z,56.48
2019-05-01T21:29:55.997Z,56.78
2019-05-01T21:32:43.901Z,56.76
2019-05-01T21:35:29.826Z,56.85
2019-05-01T21:38:19.157Z,56.48
2019-05-01T21:41:05.472Z,56.43
2019-05-01T21:43:52.965Z,56.58
2019-05-01T21:46:43.308Z,56.81
2019-05-01T21:49:29.285Z,56.79
2019-05-01T21:52:17.899Z,56.98
2019-05-01T21:55:03.049Z,57.34
2019-05-01T21:57:50.003Z,57.45
2019-05-01T22:00:38.705Z,57.52
2019-05-01T22:03:25.058Z,57.79
2019-05-01T22:06:15.229Z,57.99
2019-05-01T22:08:58.929Z,58.03
2019-05-01T22:11:44.954Z,58.15
2019-05-01T22:15:06.148Z,58.82
2019-05-01T22:18:04.644Z,59.10
2019-05-01T22:21:12.582Z,59.39
2019-05-01T22:24:19.123Z,59.59
2019-05-01T22:27:08.809Z,59.94
2019-05-01T22:30:05.604Z,59.76
2019-05-01T22:32:52.797Z,60.36
2019-05-01T22:35:44.927Z,60.78
2019-05-01T22:38:31.696Z,60.77
2019-05-01T22:41:17.635Z,60.93
2019-05-01T22:44:04.138Z,60.95
2019-05-01T22:46:53.252Z,61.14
2019-05-01T22:49:39.499Z,61.75
2019-05-01T22:52:25.523Z,62.10
2019-05-01T22:55:11.975Z,62.36
2019-05-01T22:57:58.528Z,62.48
2019-05-01T23:00:53.243Z,62.57
2019-05-01T23:04:03.162Z,63.09
2019-05-01T23:06:49.127Z,63.09
2019-05-01T23:09:35.284Z,63.39
2019-05-01T23:12:21.482Z,63.59
2019-05-01T23:15:10.545Z,63.77
2019-05-01T23:17:56.648Z,63.91
2019-05-01T23:20:42.656Z,63.97
2019-05-01T23:23:28.648Z,64.42
2019-05-01T23:26:16.843Z,64.90
2019-05-01T23:29:02.708Z,64.78
2019-05-01T23:31:50.848Z,65.07
2019-05-01T23:34:36.785Z,65.15
2019-05-01T23:37:25.801Z,65.38
2019-05-01T23:40:15.063Z,65.76
2019-05-01T23:42:58.637Z,65.63
2019-05-01T23:45:45.012Z,65.92
2019-05-01T23:48:32.012Z,65.94
2019-05-01T23:51:17.959Z,65.94
2019-05-01T23:54:04.372Z,66.46
2019-05-01T23:56:50.430Z,66.17
2019-05-01T23:59:36.591Z,66.46
